Bandido — WDC5350 — position and weather

sailwx.info

Track history (hours):
 
Tides and Currents Weather Stations Pressure Air Temp Water Temp Dewpoint Dewpoint Depression Visibility Wind Speed Wind Dir Waves Ship Positions

Bandido

Owner: Seidner, Murrey, Raleigh, NC. More information available from US FCC via Universal Licensing System.

Last reported at 2018-Jul-17 00:27 UTC. Time now 2018-Jul-17 09:40 UTC.
Position N 26°06' W 080°07'.

Length 42 m; draft 2 m.

Type: Pleasure craft. MMSI: 367039780.

Date/timePositionNaut miles runAvg speedWind from/ knotsBaromVisibWave heightAir tempDewpointWater temp
2018-Jul-17 00:27N 26°06' W 080°07'0 0.0
2018-Jul-16 23:30N 26°06' W 080°07'0 0.0
2018-Jul-16 22:57N 26°06' W 080°07'0 0.0
2018-Jul-16 22:30N 26°06' W 080°07'0 0.0
2018-Jul-16 22:00N 26°06' W 080°07'0 0.1
2018-Jul-16 21:30N 26°06' W 080°07'4 8.5
2018-Jul-16 21:00N 26°07' W 080°02'612.1
2018-Jul-16 20:30N 26°09' W 079°56'1 2.2
2018-Jul-16 20:00N 26°09' W 079°55'815.5
2018-Jul-16 19:30N 26°06' W 080°03'4 7.5
2018-Jul-16 19:00N 26°06' W 080°07'0 0.0
2018-Jul-14 16:39N 26°06' W 080°07'0 0.0
2018-Jul-14 16:24N 26°06' W 080°07'1 2.8
2018-Jul-14 16:00N 26°07' W 080°08'2 3.3
2018-Jul-14 15:30N 26°06' W 080°10'1 2.2
2018-Jul-14 14:53N 26°06' W 080°11'  
2018-Jul-10 15:54N 26°06' W 080°11'0 0.0
2018-Jul-10 15:24N 26°06' W 080°11'0 0.0
2018-Jul-10 14:54N 26°06' W 080°11'0 0.0
2018-Jul-10 14:24N 26°06' W 080°11'0 0.0
2018-Jul-10 13:54N 26°06' W 080°11'0 0.0
2018-Jul-10 13:24N 26°06' W 080°11'0 0.1
2018-Jul-10 12:59N 26°05' W 080°11'0 0.9
2018-Jul-10 12:30N 26°06' W 080°10'2 3.8
2018-Jul-10 12:00N 26°07' W 080°09'2 2.4
2018-Jul-10 11:16N 26°06' W 080°07'0 0.0
2018-Jul-10 10:49N 26°06' W 080°07'0 0.0
2018-Jul-10 10:16N 26°06' W 080°07'0 0.0
2018-Jul-10 09:52N 26°06' W 080°07'0 0.0
2018-Jul-10 09:22N 26°06' W 080°07'0 0.0
2018-Jul-10 08:52N 26°06' W 080°07'0 0.0
2018-Jul-10 08:22N 26°06' W 080°07'0 0.0
2018-Jul-10 07:52N 26°06' W 080°07'0 0.0
2018-Jul-10 07:25N 26°06' W 080°07'0 0.0
2018-Jul-10 06:55N 26°06' W 080°07'0 0.0
2018-Jul-10 06:25N 26°06' W 080°07'0 0.0
2018-Jul-10 05:55N 26°06' W 080°07'0 0.0
2018-Jul-10 05:25N 26°06' W 080°07'0 0.0
2018-Jul-10 04:55N 26°06' W 080°07'0 0.0
2018-Jul-10 04:28N 26°06' W 080°07'0 0.0
2018-Jul-10 03:55N 26°06' W 080°07'0 0.0
2018-Jul-10 03:28N 26°06' W 080°07'0 0.0
2018-Jul-10 02:55N 26°06' W 080°07'0 0.0
2018-Jul-10 02:28N 26°06' W 080°07'0 0.0
2018-Jul-10 01:58N 26°06' W 080°07'0 0.0
2018-Jul-10 01:28N 26°06' W 080°07'0 0.0
2018-Jul-10 00:58N 26°06' W 080°07'0 0.0
2018-Jul-10 00:25N 26°06' W 080°07'0 0.0
2018-Jul-09 23:58N 26°06' W 080°07'0 0.0
2018-Jul-09 23:28N 26°06' W 080°07'0 0.0
2018-Jul-09 22:58N 26°06' W 080°07'0 0.0
2018-Jul-09 22:28N 26°06' W 080°07'0 0.0
2018-Jul-09 21:58N 26°06' W 080°07'0 0.0
2018-Jul-09 21:19N 26°06' W 080°07'0 0.0
2018-Jul-09 20:49N 26°06' W 080°07'0 0.0
2018-Jul-09 20:19N 26°06' W 080°07'0 0.0
2018-Jul-09 19:46N 26°06' W 080°07'0 0.0
2018-Jul-09 19:19N 26°06' W 080°07'0 0.0
2018-Jul-09 18:52N 26°06' W 080°07'0 0.0
2018-Jul-09 18:07N 26°06' W 080°07'0 0.0
2018-Jul-09 17:49N 26°06' W 080°07'0 0.0
2018-Jul-09 17:22N 26°06' W 080°07'0 0.0
2018-Jul-09 16:55N 26°06' W 080°07'0 0.0
2018-Jul-09 16:25N 26°06' W 080°07'0 0.0
2018-Jul-09 15:55N 26°06' W 080°07'0 0.0
2018-Jul-09 15:25N 26°06' W 080°07'0 0.0
2018-Jul-09 14:55N 26°06' W 080°07'0 0.0
2018-Jul-09 14:25N 26°06' W 080°07'0 0.0
2018-Jul-09 13:58N 26°06' W 080°07'0 0.0
2018-Jul-09 13:28N 26°06' W 080°07'0 0.0
2018-Jul-09 12:58N 26°06' W 080°07'0 0.0
2018-Jul-09 12:28N 26°06' W 080°07'0 0.0
2018-Jul-09 11:55N 26°06' W 080°07'0 0.0
2018-Jul-09 11:28N 26°06' W 080°07'0 0.0
2018-Jul-09 10:58N 26°06' W 080°07'0 0.0
2018-Jul-09 10:28N 26°06' W 080°07'0 0.0
2018-Jul-09 09:58N 26°06' W 080°07'0 0.0
2018-Jul-09 09:28N 26°06' W 080°07'0 0.0
2018-Jul-09 08:58N 26°06' W 080°07'0 0.0
2018-Jul-09 08:28N 26°06' W 080°07'0 0.0
2018-Jul-09 07:58N 26°06' W 080°07'0 0.0
2018-Jul-09 07:28N 26°06' W 080°07'0 0.0
2018-Jul-09 06:49N 26°06' W 080°07'0 0.0
2018-Jul-09 06:19N 26°06' W 080°07'0 0.0
2018-Jul-09 05:52N 26°06' W 080°07'0 0.0
2018-Jul-09 05:22N 26°06' W 080°07'0 0.0
2018-Jul-09 04:52N 26°06' W 080°07'0 0.0
2018-Jul-09 04:22N 26°06' W 080°07'0 0.0
2018-Jul-09 03:52N 26°06' W 080°07'0 0.0
2018-Jul-09 03:22N 26°06' W 080°07'0 0.0
2018-Jul-09 02:55N 26°06' W 080°07'0 0.0
2018-Jul-09 02:25N 26°06' W 080°07'0 0.0
2018-Jul-09 01:55N 26°06' W 080°07'0 0.0
2018-Jul-09 01:25N 26°06' W 080°07'0 0.0
2018-Jul-09 00:55N 26°06' W 080°07'0 0.0
2018-Jul-09 00:25N 26°06' W 080°07'0 0.0
2018-Jul-08 23:58N 26°06' W 080°07'2 4.8
2018-Jul-08 23:30N 26°06' W 080°05'611.5
2018-Jul-08 23:00N 26°11' W 080°01'611.3
2018-Jul-08 22:30N 26°15' W 079°58'917.2
2018-Jul-08 22:00N 26°07' W 079°55'4 7.8
2018-Jul-08 21:30N 26°06' W 079°60'4 8.7
2018-Jul-08 21:00N 26°06' W 080°05'2 4.4
2018-Jul-08 20:28N 26°06' W 080°07'0 0.0
2018-Jul-08 19:58N 26°06' W 080°07'0 0.0
2018-Jul-08 19:28N 26°06' W 080°07'0 0.0
2018-Jul-08 18:55N 26°06' W 080°07'0 0.0
2018-Jul-08 18:28N 26°06' W 080°07'0 0.0
2018-Jul-08 17:58N 26°06' W 080°07'0 0.0
2018-Jul-08 17:16N 26°06' W 080°07'0 0.0
2018-Jul-08 16:46N 26°06' W 080°07'0 0.0
2018-Jul-08 16:28N 26°06' W 080°07'0 0.0
2018-Jul-08 15:58N 26°06' W 080°07'0 0.0
2018-Jul-07 02:07N 26°06' W 080°07'0 0.0
2018-Jul-07 01:52N 26°06' W 080°07'0 0.0
2018-Jul-07 01:19N 26°06' W 080°07'0 0.0
2018-Jul-07 00:52N 26°06' W 080°07'  
Track history (hours):
 
Tides and Currents Weather Stations Pressure Air Temp Water Temp Dewpoint Dewpoint Depression Visibility Wind Speed Wind Dir Waves Ship Positions

Bandido

Owner: Seidner, Murrey, Raleigh, NC. More information available from US FCC via Universal Licensing System.

Last reported at 2018-Jul-17 00:27 UTC. Time now 2018-Jul-17 09:40 UTC.
Position N 26°06' W 080°07'.

Length 42 m; draft 2 m.

Type: Pleasure craft. MMSI: 367039780.

Date/timePositionNaut miles runAvg speedWind from/ knotsBaromVisibWave heightAir tempDewpointWater temp
2018-Jul-17 00:27N 26°06' W 080°07'0 0.0
2018-Jul-16 23:30N 26°06' W 080°07'0 0.0
2018-Jul-16 22:57N 26°06' W 080°07'0 0.0
2018-Jul-16 22:30N 26°06' W 080°07'0 0.0
2018-Jul-16 22:00N 26°06' W 080°07'0 0.1
2018-Jul-16 21:30N 26°06' W 080°07'4 8.5
2018-Jul-16 21:00N 26°07' W 080°02'612.1
2018-Jul-16 20:30N 26°09' W 079°56'1 2.2
2018-Jul-16 20:00N 26°09' W 079°55'815.5
2018-Jul-16 19:30N 26°06' W 080°03'4 7.5
2018-Jul-16 19:00N 26°06' W 080°07'0 0.0
2018-Jul-14 16:39N 26°06' W 080°07'0 0.0
2018-Jul-14 16:24N 26°06' W 080°07'1 2.8
2018-Jul-14 16:00N 26°07' W 080°08'2 3.3
2018-Jul-14 15:30N 26°06' W 080°10'1 2.2
2018-Jul-14 14:53N 26°06' W 080°11'  
2018-Jul-10 15:54N 26°06' W 080°11'0 0.0
2018-Jul-10 15:24N 26°06' W 080°11'0 0.0
2018-Jul-10 14:54N 26°06' W 080°11'0 0.0
2018-Jul-10 14:24N 26°06' W 080°11'0 0.0
2018-Jul-10 13:54N 26°06' W 080°11'0 0.0
2018-Jul-10 13:24N 26°06' W 080°11'0 0.1
2018-Jul-10 12:59N 26°05' W 080°11'0 0.9
2018-Jul-10 12:30N 26°06' W 080°10'2 3.8
2018-Jul-10 12:00N 26°07' W 080°09'2 2.4
2018-Jul-10 11:16N 26°06' W 080°07'0 0.0
2018-Jul-10 10:49N 26°06' W 080°07'0 0.0
2018-Jul-10 10:16N 26°06' W 080°07'0 0.0
2018-Jul-10 09:52N 26°06' W 080°07'0 0.0
2018-Jul-10 09:22N 26°06' W 080°07'0 0.0
2018-Jul-10 08:52N 26°06' W 080°07'0 0.0
2018-Jul-10 08:22N 26°06' W 080°07'0 0.0
2018-Jul-10 07:52N 26°06' W 080°07'0 0.0
2018-Jul-10 07:25N 26°06' W 080°07'0 0.0
2018-Jul-10 06:55N 26°06' W 080°07'0 0.0
2018-Jul-10 06:25N 26°06' W 080°07'0 0.0
2018-Jul-10 05:55N 26°06' W 080°07'0 0.0
2018-Jul-10 05:25N 26°06' W 080°07'0 0.0
2018-Jul-10 04:55N 26°06' W 080°07'0 0.0
2018-Jul-10 04:28N 26°06' W 080°07'0 0.0
2018-Jul-10 03:55N 26°06' W 080°07'0 0.0
2018-Jul-10 03:28N 26°06' W 080°07'0 0.0
2018-Jul-10 02:55N 26°06' W 080°07'0 0.0
2018-Jul-10 02:28N 26°06' W 080°07'0 0.0
2018-Jul-10 01:58N 26°06' W 080°07'0 0.0
2018-Jul-10 01:28N 26°06' W 080°07'0 0.0
2018-Jul-10 00:58N 26°06' W 080°07'0 0.0
2018-Jul-10 00:25N 26°06' W 080°07'0 0.0
2018-Jul-09 23:58N 26°06' W 080°07'0 0.0
2018-Jul-09 23:28N 26°06' W 080°07'0 0.0
2018-Jul-09 22:58N 26°06' W 080°07'0 0.0
2018-Jul-09 22:28N 26°06' W 080°07'0 0.0
2018-Jul-09 21:58N 26°06' W 080°07'0 0.0
2018-Jul-09 21:19N 26°06' W 080°07'0 0.0
2018-Jul-09 20:49N 26°06' W 080°07'0 0.0
2018-Jul-09 20:19N 26°06' W 080°07'0 0.0
2018-Jul-09 19:46N 26°06' W 080°07'0 0.0
2018-Jul-09 19:19N 26°06' W 080°07'0 0.0
2018-Jul-09 18:52N 26°06' W 080°07'0 0.0
2018-Jul-09 18:07N 26°06' W 080°07'0 0.0
2018-Jul-09 17:49N 26°06' W 080°07'0 0.0
2018-Jul-09 17:22N 26°06' W 080°07'0 0.0
2018-Jul-09 16:55N 26°06' W 080°07'0 0.0
2018-Jul-09 16:25N 26°06' W 080°07'0 0.0
2018-Jul-09 15:55N 26°06' W 080°07'0 0.0
2018-Jul-09 15:25N 26°06' W 080°07'0 0.0
2018-Jul-09 14:55N 26°06' W 080°07'0 0.0
2018-Jul-09 14:25N 26°06' W 080°07'0 0.0
2018-Jul-09 13:58N 26°06' W 080°07'0 0.0
2018-Jul-09 13:28N 26°06' W 080°07'0 0.0
2018-Jul-09 12:58N 26°06' W 080°07'0 0.0
2018-Jul-09 12:28N 26°06' W 080°07'0 0.0
2018-Jul-09 11:55N 26°06' W 080°07'0 0.0
2018-Jul-09 11:28N 26°06' W 080°07'0 0.0
2018-Jul-09 10:58N 26°06' W 080°07'0 0.0
2018-Jul-09 10:28N 26°06' W 080°07'0 0.0
2018-Jul-09 09:58N 26°06' W 080°07'0 0.0
2018-Jul-09 09:28N 26°06' W 080°07'0 0.0
2018-Jul-09 08:58N 26°06' W 080°07'0 0.0
2018-Jul-09 08:28N 26°06' W 080°07'0 0.0
2018-Jul-09 07:58N 26°06' W 080°07'0 0.0
2018-Jul-09 07:28N 26°06' W 080°07'0 0.0
2018-Jul-09 06:49N 26°06' W 080°07'0 0.0
2018-Jul-09 06:19N 26°06' W 080°07'0 0.0
2018-Jul-09 05:52N 26°06' W 080°07'0 0.0
2018-Jul-09 05:22N 26°06' W 080°07'0 0.0
2018-Jul-09 04:52N 26°06' W 080°07'0 0.0
2018-Jul-09 04:22N 26°06' W 080°07'0 0.0
2018-Jul-09 03:52N 26°06' W 080°07'0 0.0
2018-Jul-09 03:22N 26°06' W 080°07'0 0.0
2018-Jul-09 02:55N 26°06' W 080°07'0 0.0
2018-Jul-09 02:25N 26°06' W 080°07'0 0.0
2018-Jul-09 01:55N 26°06' W 080°07'0 0.0
2018-Jul-09 01:25N 26°06' W 080°07'0 0.0
2018-Jul-09 00:55N 26°06' W 080°07'0 0.0
2018-Jul-09 00:25N 26°06' W 080°07'0 0.0
2018-Jul-08 23:58N 26°06' W 080°07'2 4.8
2018-Jul-08 23:30N 26°06' W 080°05'611.5
2018-Jul-08 23:00N 26°11' W 080°01'611.3
2018-Jul-08 22:30N 26°15' W 079°58'917.2
2018-Jul-08 22:00N 26°07' W 079°55'4 7.8
2018-Jul-08 21:30N 26°06' W 079°60'4 8.7
2018-Jul-08 21:00N 26°06' W 080°05'2 4.4
2018-Jul-08 20:28N 26°06' W 080°07'0 0.0
2018-Jul-08 19:58N 26°06' W 080°07'0 0.0
2018-Jul-08 19:28N 26°06' W 080°07'0 0.0
2018-Jul-08 18:55N 26°06' W 080°07'0 0.0
2018-Jul-08 18:28N 26°06' W 080°07'0 0.0
2018-Jul-08 17:58N 26°06' W 080°07'0 0.0
2018-Jul-08 17:16N 26°06' W 080°07'0 0.0
2018-Jul-08 16:46N 26°06' W 080°07'0 0.0
2018-Jul-08 16:28N 26°06' W 080°07'0 0.0
2018-Jul-08 15:58N 26°06' W 080°07'0 0.0
2018-Jul-07 02:07N 26°06' W 080°07'0 0.0
2018-Jul-07 01:52N 26°06' W 080°07'0 0.0
2018-Jul-07 01:19N 26°06' W 080°07'0 0.0
2018-Jul-07 00:52N 26°06' W 080°07'  

Dump ship's entire track history